createdAt,value
2019-02-20T00:00:57.512Z,2.96
2019-02-20T00:01:56.975Z,2.96
2019-02-20T00:02:56.799Z,2.93
2019-02-20T00:03:56.984Z,2.94
2019-02-20T00:04:57.170Z,2.93
2019-02-20T00:05:56.997Z,2.93
2019-02-20T00:06:57.014Z,2.92
2019-02-20T00:07:56.955Z,2.92
2019-02-20T00:08:57.080Z,2.94
2019-02-20T00:09:57.028Z,2.87
2019-02-20T00:10:57.031Z,2.84
2019-02-20T00:11:57.139Z,2.84
2019-02-20T00:12:57.161Z,2.83
2019-02-20T00:13:56.734Z,2.82
2019-02-20T00:14:56.941Z,2.82
2019-02-20T00:15:57.592Z,2.83
2019-02-20T00:16:57.697Z,2.82
2019-02-20T00:17:57.181Z,2.82
2019-02-20T00:18:56.739Z,2.82
2019-02-20T00:19:56.756Z,2.77
2019-02-20T00:20:57.101Z,2.77
2019-02-20T00:21:56.733Z,2.76
2019-02-20T00:22:56.786Z,2.76
2019-02-20T00:23:58.548Z,2.76
2019-02-20T00:24:57.230Z,2.76
2019-02-20T00:25:57.129Z,2.73
2019-02-20T00:26:56.742Z,2.65
2019-02-20T00:27:57.006Z,2.66
2019-02-20T00:28:56.863Z,2.66
2019-02-20T00:29:56.808Z,2.62
2019-02-20T00:30:57.069Z,2.62
2019-02-20T00:31:57.001Z,2.62
2019-02-20T00:32:56.748Z,2.62
2019-02-20T00:33:56.978Z,2.61
2019-02-20T00:34:56.985Z,2.59
2019-02-20T00:35:56.992Z,2.59
2019-02-20T00:36:56.666Z,2.58
2019-02-20T00:37:57.223Z,2.59
2019-02-20T00:38:57.216Z,2.58
2019-02-20T00:39:56.767Z,2.58
2019-02-20T00:40:57.502Z,2.59
2019-02-20T00:41:56.766Z,2.59
2019-02-20T00:42:56.715Z,2.59
2019-02-20T00:43:56.942Z,2.58
2019-02-20T00:44:56.828Z,2.59
2019-02-20T00:45:57.603Z,2.58
2019-02-20T00:46:56.970Z,2.54
2019-02-20T00:47:57.383Z,2.51
2019-02-20T00:48:57.077Z,2.49
2019-02-20T00:49:57.084Z,2.51
2019-02-20T00:50:57.538Z,2.51
2019-02-20T00:51:56.916Z,2.52
2019-02-20T00:52:56.810Z,2.52
2019-02-20T00:53:56.634Z,2.47
2019-02-20T00:54:56.658Z,2.45
2019-02-20T00:55:56.952Z,2.47
2019-02-20T00:56:56.747Z,2.48
2019-02-20T00:57:56.633Z,2.48
2019-02-20T00:58:57.558Z,2.48
2019-02-20T00:59:57.753Z,2.49
2019-02-20T01:00:56.757Z,2.52
2019-02-20T01:01:56.673Z,2.51
2019-02-20T01:02:56.970Z,2.52
2019-02-20T01:03:56.626Z,2.49
2019-02-20T01:04:56.651Z,2.51
2019-02-20T01:05:57.584Z,2.48
2019-02-20T01:06:56.758Z,2.45
2019-02-20T01:07:57.109Z,2.43
2019-02-20T01:08:56.656Z,2.44
2019-02-20T01:09:56.756Z,2.44
2019-02-20T01:10:56.798Z,2.43
2019-02-20T01:11:57.240Z,2.44
2019-02-20T01:12:56.659Z,2.41
2019-02-20T01:13:56.830Z,2.44
2019-02-20T01:14:56.600Z,2.44
2019-02-20T01:15:56.766Z,2.44
2019-02-20T01:16:56.785Z,2.45
2019-02-20T01:17:57.163Z,2.47
2019-02-20T01:18:58.479Z,2.44
2019-02-20T01:19:56.610Z,2.38
2019-02-20T01:20:57.559Z,2.37
2019-02-20T01:21:57.610Z,2.31
2019-02-20T01:23:00.613Z,2.28
2019-02-20T01:23:57.319Z,2.3
2019-02-20T01:24:56.629Z,2.31
2019-02-20T01:25:56.578Z,2.31
2019-02-20T01:26:56.694Z,2.27
2019-02-20T01:27:58.307Z,2.28
2019-02-20T01:28:57.035Z,2.26
2019-02-20T01:29:56.999Z,2.27
2019-02-20T01:30:56.625Z,2.27
2019-02-20T01:31:57.153Z,2.27
2019-02-20T01:32:56.935Z,2.27
2019-02-20T01:33:56.707Z,2.27
2019-02-20T01:34:56.652Z,2.31
2019-02-20T01:35:57.715Z,2.3
2019-02-20T01:36:56.908Z,2.28
2019-02-20T01:37:56.582Z,2.27
2019-02-20T01:38:56.688Z,2.26
2019-02-20T01:39:56.950Z,2.26
2019-02-20T01:40:56.702Z,2.24
2019-02-20T01:41:57.231Z,2.26
2019-02-20T01:42:57.434Z,2.21
2019-02-20T01:43:58.055Z,2.24
2019-02-20T01:44:56.837Z,2.22
2019-02-20T01:45:56.618Z,2.24
2019-02-20T01:46:58.702Z,2.22
2019-02-20T01:47:56.913Z,2.21
2019-02-20T01:48:56.743Z,2.22
2019-02-20T01:49:56.655Z,2.24
2019-02-20T01:50:56.580Z,2.27
2019-02-20T01:51:58.005Z,2.26
2019-02-20T01:52:56.642Z,2.21
2019-02-20T01:53:56.612Z,2.24
2019-02-20T01:54:56.912Z,2.22
2019-02-20T01:55:56.611Z,2.26
2019-02-20T01:56:57.381Z,2.27
2019-02-20T01:57:56.823Z,2.28
2019-02-20T01:58:56.653Z,2.24
2019-02-20T01:59:56.829Z,2.28
2019-02-20T02:00:56.693Z,2.33
2019-02-20T02:01:57.154Z,2.3
2019-02-20T02:02:56.961Z,2.3
2019-02-20T02:03:56.853Z,2.33
2019-02-20T02:04:57.483Z,2.33
2019-02-20T02:05:56.581Z,2.34
2019-02-20T02:06:56.899Z,2.38
2019-02-20T02:07:56.657Z,2.38
2019-02-20T02:08:56.996Z,2.37
2019-02-20T02:09:56.897Z,2.41
2019-02-20T02:10:56.644Z,2.4
2019-02-20T02:11:56.599Z,2.4
2019-02-20T02:12:58.374Z,2.44
2019-02-20T02:13:56.923Z,2.41
2019-02-20T02:14:56.562Z,2.43
2019-02-20T02:15:57.756Z,2.43
2019-02-20T02:16:56.507Z,2.41
2019-02-20T02:17:56.673Z,2.43
2019-02-20T02:18:56.613Z,2.43
2019-02-20T02:19:57.558Z,2.44
2019-02-20T02:20:56.657Z,2.41
2019-02-20T02:21:56.870Z,2.43
2019-02-20T02:22:57.120Z,2.43
2019-02-20T02:23:58.401Z,2.4
2019-02-20T02:24:56.618Z,2.4
2019-02-20T02:25:58.360Z,2.41
2019-02-20T02:26:57.458Z,2.43
2019-02-20T02:27:56.535Z,2.41
2019-02-20T02:28:56.814Z,2.43
2019-02-20T02:29:57.239Z,2.4
2019-02-20T02:30:56.682Z,2.4
2019-02-20T02:31:56.844Z,2.4
2019-02-20T02:32:57.517Z,2.4
2019-02-20T02:33:58.351Z,2.4
2019-02-20T02:34:56.583Z,2.4
2019-02-20T02:35:56.962Z,2.4
2019-02-20T02:36:56.560Z,2.38
2019-02-20T02:37:56.996Z,2.38
2019-02-20T02:38:56.858Z,2.34
2019-02-20T02:39:56.786Z,2.31
2019-02-20T02:40:56.556Z,2.33
2019-02-20T02:41:56.528Z,2.34
2019-02-20T02:42:56.621Z,2.28
2019-02-20T02:43:57.152Z,2.27
2019-02-20T02:44:56.487Z,2.27
2019-02-20T02:45:56.923Z,2.27
2019-02-20T02:46:56.933Z,2.27
2019-02-20T02:47:56.830Z,2.22
2019-02-20T02:48:58.358Z,2.22
2019-02-20T02:49:56.849Z,2.18
2019-02-20T02:50:56.498Z,2.21
2019-02-20T02:51:56.508Z,2.21
2019-02-20T02:52:56.766Z,2.18
2019-02-20T02:53:56.525Z,2.18
2019-02-20T02:54:58.346Z,2.14
2019-02-20T02:55:56.441Z,2.16
2019-02-20T02:56:56.885Z,2.16
2019-02-20T02:57:56.901Z,2.14
2019-02-20T02:58:58.388Z,2.17
2019-02-20T02:59:56.534Z,2.16
2019-02-20T03:00:56.454Z,2.13
2019-02-20T03:01:58.370Z,2.1
2019-02-20T03:02:56.730Z,2.09
2019-02-20T03:03:56.451Z,2.07
2019-02-20T03:04:56.857Z,2.07
2019-02-20T03:05:56.587Z,2.04
2019-02-20T03:06:56.710Z,2.03
2019-02-20T03:07:56.530Z,2.01
2019-02-20T03:08:57.100Z,2.01
2019-02-20T03:09:56.689Z,2.01
2019-02-20T03:10:57.404Z,2
2019-02-20T03:11:56.798Z,1.99
2019-02-20T03:12:56.663Z,2
2019-02-20T03:13:56.416Z,1.96
2019-02-20T03:14:56.489Z,1.99
2019-02-20T03:15:56.715Z,1.94
2019-02-20T03:16:56.628Z,1.94
2019-02-20T03:17:57.030Z,1.96
2019-02-20T03:18:56.849Z,1.94
2019-02-20T03:19:56.552Z,1.97
2019-02-20T03:20:58.293Z,1.99
2019-02-20T03:21:56.588Z,2
2019-02-20T03:22:56.437Z,1.99
2019-02-20T03:23:57.012Z,1.94
2019-02-20T03:24:58.294Z,1.92
2019-02-20T03:25:56.496Z,1.93
2019-02-20T03:26:56.743Z,1.89
2019-02-20T03:27:56.500Z,1.87
2019-02-20T03:28:56.503Z,1.9
2019-02-20T03:29:56.593Z,1.87
2019-02-20T03:30:56.517Z,1.87
2019-02-20T03:31:56.608Z,1.9
2019-02-20T03:32:58.066Z,1.89
2019-02-20T03:33:56.802Z,1.87
2019-02-20T03:34:56.539Z,1.85
2019-02-20T03:35:56.544Z,1.85
2019-02-20T03:36:56.526Z,1.85
2019-02-20T03:37:56.449Z,1.86
2019-02-20T03:38:56.621Z,1.89
2019-02-20T03:39:56.510Z,1.86
2019-02-20T03:40:56.990Z,1.82
2019-02-20T03:41:56.586Z,1.81
2019-02-20T03:42:58.321Z,1.75
2019-02-20T03:43:56.251Z,1.76
2019-02-20T03:44:56.218Z,1.72
2019-02-20T03:45:56.233Z,1.75
2019-02-20T03:46:56.253Z,1.72
2019-02-20T03:47:56.221Z,1.72
2019-02-20T03:48:56.446Z,1.68
2019-02-20T03:49:56.442Z,1.68
2019-02-20T03:50:56.416Z,1.64
2019-02-20T03:51:57.092Z,1.62
2019-02-20T03:52:56.528Z,1.61
2019-02-20T03:53:56.778Z,1.61
2019-02-20T03:54:56.983Z,1.62
2019-02-20T03:55:58.215Z,1.61
2019-02-20T03:56:56.450Z,1.58
2019-02-20T03:57:56.685Z,1.58
2019-02-20T03:58:56.915Z,1.58
2019-02-20T03:59:56.606Z,1.58
2019-02-20T04:00:56.721Z,1.58
2019-02-20T04:01:56.482Z,1.55
2019-02-20T04:02:56.444Z,1.55
2019-02-20T04:03:56.733Z,1.53
2019-02-20T04:04:56.724Z,1.53
2019-02-20T04:05:56.964Z,1.51
2019-02-20T04:06:56.638Z,1.45
2019-02-20T04:07:56.421Z,1.44
2019-02-20T04:08:56.559Z,1.41
2019-02-20T04:09:56.452Z,1.44
2019-02-20T04:10:56.499Z,1.47
2019-02-20T04:11:56.397Z,1.47
2019-02-20T04:12:56.666Z,1.48
2019-02-20T04:13:56.492Z,1.51
2019-02-20T04:14:56.442Z,1.51
2019-02-20T04:15:56.454Z,1.51
2019-02-20T04:16:57.385Z,1.5
2019-02-20T04:17:57.035Z,1.47
2019-02-20T04:18:56.786Z,1.45
2019-02-20T04:19:56.349Z,1.45
2019-02-20T04:20:56.398Z,1.45
2019-02-20T04:21:56.752Z,1.41
2019-02-20T04:22:57.404Z,1.4
2019-02-20T04:24:03.185Z,1.41
2019-02-20T04:24:56.671Z,1.44
2019-02-20T04:25:58.234Z,1.43
2019-02-20T04:26:56.341Z,1.4
2019-02-20T04:27:56.319Z,1.36
2019-02-20T04:28:56.703Z,1.27
2019-02-20T04:29:56.542Z,1.33
2019-02-20T04:30:56.594Z,1.33
2019-02-20T04:31:56.715Z,1.36
2019-02-20T04:32:58.708Z,1.36
2019-02-20T04:33:56.387Z,1.3
2019-02-20T04:34:56.356Z,1.31
2019-02-20T04:35:56.634Z,1.3
2019-02-20T04:36:56.537Z,1.28
2019-02-20T04:37:56.163Z,1.34
2019-02-20T04:38:56.349Z,1.33
2019-02-20T04:39:56.486Z,1.34
2019-02-20T04:40:56.323Z,1.33
2019-02-20T04:41:56.699Z,1.31
2019-02-20T04:42:58.689Z,1.28
2019-02-20T04:43:56.325Z,1.31
2019-02-20T04:44:56.683Z,1.34
2019-02-20T04:45:56.896Z,1.28
2019-02-20T04:46:56.616Z,1.31
2019-02-20T04:47:56.498Z,1.31
2019-02-20T04:48:57.098Z,1.26
2019-02-20T04:49:56.281Z,1.26
2019-02-20T04:50:56.629Z,1.22
2019-02-20T04:51:57.156Z,1.24
2019-02-20T04:52:56.740Z,1.3
2019-02-20T04:53:56.462Z,1.26
2019-02-20T04:54:56.440Z,1.24
2019-02-20T04:55:56.575Z,1.28
2019-02-20T04:56:56.402Z,1.26
2019-02-20T04:57:56.349Z,1.28
2019-02-20T04:58:56.695Z,1.26
2019-02-20T04:59:56.596Z,1.27
2019-02-20T05:00:57.120Z,1.27
2019-02-20T05:01:58.139Z,1.28
2019-02-20T05:02:56.616Z,1.28
2019-02-20T05:03:56.622Z,1.27
2019-02-20T05:04:57.840Z,1.3
2019-02-20T05:05:56.452Z,1.3
2019-02-20T05:06:56.750Z,1.3
2019-02-20T05:07:56.530Z,1.3
2019-02-20T05:08:57.780Z,1.26
2019-02-20T05:09:56.507Z,1.23
2019-02-20T05:10:56.428Z,1.24
2019-02-20T05:11:56.466Z,1.17
2019-02-20T05:12:56.396Z,1.22
2019-02-20T05:13:56.266Z,1.23
2019-02-20T05:14:56.260Z,1.2
2019-02-20T05:15:56.260Z,1.22
2019-02-20T05:16:56.831Z,1.19
2019-02-20T05:17:56.617Z,1.27
2019-02-20T05:18:56.331Z,1.23
2019-02-20T05:19:56.399Z,1.2
2019-02-20T05:20:56.699Z,1.19
2019-02-20T05:21:56.221Z,1.17
2019-02-20T05:22:56.543Z,1.15
2019-02-20T05:23:56.996Z,1.19
2019-02-20T05:24:56.363Z,1.19
2019-02-20T05:25:56.282Z,1.2
2019-02-20T05:26:56.401Z,1.26
2019-02-20T05:27:57.239Z,1.23
2019-02-20T05:28:56.347Z,1.26
2019-02-20T05:29:56.479Z,1.22
2019-02-20T05:30:56.276Z,1.23
2019-02-20T05:31:56.298Z,1.24
2019-02-20T05:32:56.367Z,1.23
2019-02-20T05:33:56.619Z,1.22
2019-02-20T05:34:57.024Z,1.2
2019-02-20T05:35:56.182Z,1.19
2019-02-20T05:36:56.262Z,1.16
2019-02-20T05:37:56.430Z,1.17
2019-02-20T05:38:56.386Z,1.19
2019-02-20T05:39:56.347Z,1.16
2019-02-20T05:40:56.224Z,1.24
2019-02-20T05:41:56.754Z,1.33
2019-02-20T05:42:56.304Z,1.36
2019-02-20T05:43:56.676Z,1.38
2019-02-20T05:44:56.479Z,1.36
2019-02-20T05:45:57.133Z,1.3
2019-02-20T05:46:56.269Z,1.26
2019-02-20T05:47:56.392Z,1.24
2019-02-20T05:48:57.645Z,1.23
2019-02-20T05:49:58.051Z,1.24
2019-02-20T05:50:56.280Z,1.27
2019-02-20T05:51:56.895Z,1.22
2019-02-20T05:52:56.212Z,1.19
2019-02-20T05:53:56.307Z,1.17
2019-02-20T05:54:56.431Z,1.17
2019-02-20T05:55:56.206Z,1.1
2019-02-20T05:56:56.357Z,1.1
2019-02-20T05:57:56.252Z,1.06
2019-02-20T05:58:56.668Z,0.99
2019-02-20T05:59:56.430Z,0.99
2019-02-20T06:00:56.212Z,0.92
2019-02-20T06:01:56.242Z,0.95
2019-02-20T06:02:58.047Z,0.93
2019-02-20T06:03:56.385Z,0.92
2019-02-20T06:04:56.295Z,0.92
2019-02-20T06:05:58.043Z,0.89
2019-02-20T06:06:56.175Z,0.91
2019-02-20T06:07:57.182Z,0.88
2019-02-20T06:08:56.939Z,0.88
2019-02-20T06:09:56.373Z,0.86
2019-02-20T06:10:56.281Z,0.86
2019-02-20T06:11:56.458Z,0.86
2019-02-20T06:12:56.494Z,0.91
2019-02-20T06:13:56.303Z,0.91
2019-02-20T06:14:56.204Z,0.91
2019-02-20T06:15:56.474Z,0.91
2019-02-20T06:16:57.997Z,0.91
2019-02-20T06:17:56.271Z,0.89
2019-02-20T06:18:56.142Z,0.88
2019-02-20T06:19:57.187Z,0.91
2019-02-20T06:20:56.504Z,0.89
2019-02-20T06:21:56.254Z,0.89
2019-02-20T06:22:56.558Z,0.89
2019-02-20T06:23:56.259Z,0.93
2019-02-20T06:24:56.291Z,0.96
2019-02-20T06:25:56.277Z,0.96
2019-02-20T06:26:57.992Z,0.96
2019-02-20T06:27:56.581Z,1.02
2019-02-20T06:28:56.716Z,1.03
2019-02-20T06:29:56.767Z,1.06
2019-02-20T06:30:57.137Z,1.09
2019-02-20T06:31:56.166Z,1.06
2019-02-20T06:32:56.337Z,1.09
2019-02-20T06:33:56.350Z,1.07
2019-02-20T06:34:56.285Z,1.06
2019-02-20T06:35:56.226Z,1.03
2019-02-20T06:36:56.409Z,1.04
2019-02-20T06:37:56.127Z,1.03
2019-02-20T06:38:56.526Z,1.02
2019-02-20T06:39:57.995Z,1
2019-02-20T06:40:56.817Z,1.03
2019-02-20T06:41:56.318Z,1.06
2019-02-20T06:42:56.649Z,1.03
2019-02-20T06:43:56.582Z,1.03
2019-02-20T06:44:56.158Z,1.04
2019-02-20T06:45:56.363Z,1.07
2019-02-20T06:46:56.320Z,1.06
2019-02-20T06:47:56.686Z,1.07
2019-02-20T06:48:56.900Z,1.07
2019-02-20T06:49:56.254Z,1.13
2019-02-20T06:50:56.149Z,1.11
2019-02-20T06:51:57.167Z,1.15
2019-02-20T06:52:57.336Z,1.15
2019-02-20T06:53:56.153Z,1.2
2019-02-20T06:54:57.221Z,1.22
2019-02-20T06:55:56.357Z,1.2
2019-02-20T06:56:56.443Z,1.24
2019-02-20T06:57:57.011Z,1.24
2019-02-20T06:58:56.174Z,1.3
2019-02-20T06:59:57.019Z,1.3
2019-02-20T07:00:56.164Z,1.33
2019-02-20T07:01:56.574Z,1.37
2019-02-20T07:02:56.133Z,1.36
2019-02-20T07:03:56.374Z,1.36
2019-02-20T07:04:56.152Z,1.36
2019-02-20T07:05:56.384Z,1.36
2019-02-20T07:06:56.103Z,1.37
2019-02-20T07:07:57.958Z,1.41
2019-02-20T07:08:56.632Z,1.38
2019-02-20T07:09:56.328Z,1.41
2019-02-20T07:10:57.831Z,1.45
2019-02-20T07:11:56.107Z,1.4
2019-02-20T07:12:56.123Z,1.4
2019-02-20T07:13:56.936Z,1.4
2019-02-20T07:14:56.882Z,1.4
2019-02-20T07:15:56.832Z,1.4
2019-02-20T07:16:56.210Z,1.38
2019-02-20T07:17:56.117Z,1.36
2019-02-20T07:18:57.974Z,1.37
2019-02-20T07:19:56.101Z,1.37
2019-02-20T07:20:56.144Z,1.36
2019-02-20T07:21:56.396Z,1.34
2019-02-20T07:22:56.709Z,1.36
2019-02-20T07:23:56.194Z,1.36
2019-02-20T07:25:03.867Z,1.34
2019-02-20T07:25:57.330Z,1.31
2019-02-20T07:26:56.319Z,1.3
2019-02-20T07:27:56.428Z,1.31
2019-02-20T07:28:56.333Z,1.33
2019-02-20T07:29:56.039Z,1.36
2019-02-20T07:30:56.248Z,1.33
2019-02-20T07:31:56.176Z,1.33
2019-02-20T07:32:56.080Z,1.37
2019-02-20T07:33:56.584Z,1.36
2019-02-20T07:34:56.593Z,1.34
2019-02-20T07:35:56.920Z,1.34
2019-02-20T07:36:56.978Z,1.31
2019-02-20T07:37:56.093Z,1.34
2019-02-20T07:38:56.338Z,1.37
2019-02-20T07:39:57.629Z,1.37
2019-02-20T07:40:56.152Z,1.38
2019-02-20T07:41:56.153Z,1.4
2019-02-20T07:42:56.140Z,1.43
2019-02-20T07:43:56.121Z,1.43
2019-02-20T07:44:56.028Z,1.4
2019-02-20T07:45:56.592Z,1.4
2019-02-20T07:46:56.500Z,1.43
2019-02-20T07:47:57.076Z,1.43
2019-02-20T07:48:56.113Z,1.45
2019-02-20T07:49:56.201Z,1.45
2019-02-20T07:50:56.131Z,1.48
2019-02-20T07:51:56.198Z,1.53
2019-02-20T07:52:56.123Z,1.53
2019-02-20T07:53:57.898Z,1.55
2019-02-20T07:54:56.036Z,1.55
2019-02-20T07:55:56.892Z,1.68
2019-02-20T07:56:56.426Z,1.83
2019-02-20T07:57:56.035Z,1.86
2019-02-20T07:58:56.643Z,1.86
2019-02-20T07:59:56.042Z,1.89
2019-02-20T08:00:57.049Z,1.86
2019-02-20T08:01:56.111Z,1.89
2019-02-20T08:02:56.142Z,1.89
2019-02-20T08:03:56.080Z,1.92
2019-02-20T08:04:56.293Z,1.9
2019-02-20T08:05:56.053Z,1.9
2019-02-20T08:06:56.501Z,1.94
2019-02-20T08:07:56.862Z,1.96
2019-02-20T08:08:56.047Z,1.96
2019-02-20T08:09:56.232Z,1.97
2019-02-20T08:10:56.191Z,1.99
2019-02-20T08:11:56.345Z,2.03
2019-02-20T08:12:56.437Z,2.04
2019-02-20T08:13:55.980Z,2.07
2019-02-20T08:14:56.546Z,2.07
2019-02-20T08:15:56.611Z,2.09
2019-02-20T08:16:56.079Z,2.11
2019-02-20T08:17:56.274Z,2.16
2019-02-20T08:18:56.365Z,2.18
2019-02-20T08:19:56.879Z,2.18
2019-02-20T08:20:56.674Z,2.24
2019-02-20T08:21:56.179Z,2.24
2019-02-20T08:22:55.991Z,2.26
2019-02-20T08:23:56.321Z,2.3
2019-02-20T08:24:56.024Z,2.33
2019-02-20T08:25:56.030Z,2.36
2019-02-20T08:26:55.996Z,2.36
2019-02-20T08:27:56.014Z,2.38
2019-02-20T08:28:55.984Z,2.45
2019-02-20T08:29:56.152Z,2.45
2019-02-20T08:30:56.239Z,2.48
2019-02-20T08:31:56.552Z,2.49
2019-02-20T08:32:57.284Z,2.54
2019-02-20T08:33:56.403Z,2.55
2019-02-20T08:34:56.007Z,2.55
2019-02-20T08:35:56.366Z,2.61
2019-02-20T08:36:56.085Z,2.64
2019-02-20T08:37:56.188Z,2.66
2019-02-20T08:38:56.284Z,2.68
2019-02-20T08:39:56.108Z,2.68
2019-02-20T08:40:56.012Z,2.72
2019-02-20T08:41:56.420Z,2.76
2019-02-20T08:42:56.991Z,2.77
2019-02-20T08:43:56.333Z,2.79
2019-02-20T08:44:56.592Z,2.8
2019-02-20T08:45:55.962Z,2.84
2019-02-20T08:46:56.335Z,2.87
2019-02-20T08:47:56.074Z,2.89
2019-02-20T08:48:56.173Z,2.9
2019-02-20T08:49:56.807Z,2.92
2019-02-20T08:50:56.103Z,2.99
2019-02-20T08:51:57.773Z,3
2019-02-20T08:52:56.378Z,3.03
2019-02-20T08:53:56.301Z,3.06
2019-02-20T08:54:56.086Z,3.12
2019-02-20T08:55:56.092Z,3.15
2019-02-20T08:56:57.761Z,3.17
2019-02-20T08:57:55.736Z,3.22
2019-02-20T08:58:55.756Z,3.24
2019-02-20T08:59:56.120Z,3.28
2019-02-20T09:00:56.126Z,3.31
2019-02-20T09:01:56.013Z,3.37
2019-02-20T09:02:56.149Z,3.41
2019-02-20T09:03:56.793Z,3.42
2019-02-20T09:04:56.924Z,3.44
2019-02-20T09:05:56.259Z,3.49
2019-02-20T09:06:56.353Z,3.49
2019-02-20T09:07:56.102Z,3.52
2019-02-20T09:08:56.191Z,3.56
2019-02-20T09:09:56.023Z,3.62
2019-02-20T09:10:56.704Z,3.65
2019-02-20T09:11:55.899Z,3.69
2019-02-20T09:12:56.513Z,3.69
2019-02-20T09:13:56.111Z,3.72
2019-02-20T09:14:55.893Z,3.76
2019-02-20T09:15:56.535Z,3.8
2019-02-20T09:16:56.435Z,3.83
2019-02-20T09:17:55.714Z,3.87
2019-02-20T09:18:55.935Z,3.9
2019-02-20T09:19:56.130Z,3.91
2019-02-20T09:20:56.171Z,3.97
2019-02-20T09:21:56.163Z,3.98
2019-02-20T09:22:56.072Z,4.01
2019-02-20T09:23:56.383Z,4.02
2019-02-20T09:24:56.817Z,4.08
2019-02-20T09:25:57.732Z,4.11
2019-02-20T09:26:56.909Z,4.15
2019-02-20T09:27:56.789Z,4.15
2019-02-20T09:28:57.091Z,4.21
2019-02-20T09:29:56.037Z,4.22
2019-02-20T09:30:57.697Z,4.28
2019-02-20T09:31:56.134Z,4.26
2019-02-20T09:32:56.041Z,4.38
2019-02-20T09:33:56.913Z,4.39
2019-02-20T09:34:56.077Z,4.43
2019-02-20T09:35:56.055Z,4.51
2019-02-20T09:36:56.713Z,4.53
2019-02-20T09:37:56.097Z,4.55
2019-02-20T09:38:56.074Z,4.6
2019-02-20T09:39:56.394Z,4.6
2019-02-20T09:40:56.088Z,4.65
2019-02-20T09:41:56.099Z,4.67
2019-02-20T09:42:55.927Z,4.77
2019-02-20T09:43:56.004Z,4.79
2019-02-20T09:44:57.683Z,4.83
2019-02-20T09:45:56.041Z,4.86
2019-02-20T09:46:56.025Z,4.9
2019-02-20T09:47:57.708Z,4.91
2019-02-20T09:48:56.552Z,4.93
2019-02-20T09:49:56.054Z,4.97
2019-02-20T09:50:55.985Z,5
2019-02-20T09:51:56.162Z,5.01
2019-02-20T09:52:56.170Z,5.1
2019-02-20T09:53:56.177Z,5.14
2019-02-20T09:54:55.832Z,5.21
2019-02-20T09:55:55.928Z,5.21
2019-02-20T09:56:56.090Z,5.22
2019-02-20T09:57:56.860Z,5.26
2019-02-20T09:58:56.116Z,5.28
2019-02-20T09:59:57.672Z,5.36
2019-02-20T10:00:56.228Z,5.43
2019-02-20T10:01:56.129Z,5.46
2019-02-20T10:02:57.338Z,5.47
2019-02-20T10:03:56.233Z,5.53
2019-02-20T10:04:57.670Z,5.59
2019-02-20T10:05:57.671Z,5.6
2019-02-20T10:06:56.047Z,5.64
2019-02-20T10:07:55.844Z,5.67
2019-02-20T10:08:55.989Z,5.73
2019-02-20T10:09:56.699Z,5.84
2019-02-20T10:10:55.842Z,5.91
2019-02-20T10:11:56.091Z,5.97
2019-02-20T10:12:56.205Z,5.95
2019-02-20T10:13:56.104Z,6
2019-02-20T10:14:56.005Z,6.05
2019-02-20T10:15:56.120Z,6.13
2019-02-20T10:16:56.122Z,6.2
2019-02-20T10:17:56.126Z,6.23
2019-02-20T10:18:56.335Z,6.29
2019-02-20T10:19:56.471Z,6.37
2019-02-20T10:20:55.781Z,6.37
2019-02-20T10:21:56.250Z,6.41
2019-02-20T10:22:55.862Z,6.43
2019-02-20T10:23:56.267Z,6.46
2019-02-20T10:24:56.072Z,6.51
2019-02-20T10:26:01.439Z,6.54
2019-02-20T10:27:01.241Z,6.58
2019-02-20T10:27:56.155Z,6.6
2019-02-20T10:28:55.994Z,6.64
2019-02-20T10:29:56.345Z,6.67
2019-02-20T10:30:56.014Z,6.73
2019-02-20T10:31:56.029Z,6.8
2019-02-20T10:32:56.326Z,6.83
2019-02-20T10:33:56.140Z,6.84
2019-02-20T10:34:55.898Z,6.9
2019-02-20T10:35:56.037Z,6.87
2019-02-20T10:36:55.825Z,6.91
2019-02-20T10:37:56.162Z,6.9
2019-02-20T10:38:56.065Z,6.9
2019-02-20T10:39:56.086Z,6.96
2019-02-20T10:40:56.403Z,7.02
2019-02-20T10:41:56.109Z,7.01
2019-02-20T10:42:56.095Z,7.03
2019-02-20T10:43:55.927Z,7.13
2019-02-20T10:44:57.594Z,7.15
2019-02-20T10:45:56.112Z,7.15
2019-02-20T10:46:56.118Z,7.13
2019-02-20T10:47:56.032Z,7.15
2019-02-20T10:48:55.766Z,7.09
2019-02-20T10:49:56.030Z,7.13
2019-02-20T10:50:56.586Z,7.15
2019-02-20T10:51:57.597Z,7.09
2019-02-20T10:52:55.919Z,7.09
2019-02-20T10:53:55.973Z,7.16
2019-02-20T10:54:58.193Z,7.2
2019-02-20T10:55:56.899Z,7.26
2019-02-20T10:56:55.977Z,7.3
2019-02-20T10:57:56.113Z,7.37
2019-02-20T10:58:56.108Z,7.47
2019-02-20T10:59:55.731Z,7.48
2019-02-20T11:00:56.109Z,7.53
2019-02-20T11:01:55.896Z,7.57
2019-02-20T11:02:56.125Z,7.58
2019-02-20T11:03:55.800Z,7.59
2019-02-20T11:04:56.613Z,7.57
2019-02-20T11:05:56.043Z,7.57
2019-02-20T11:06:56.581Z,7.65
2019-02-20T11:07:56.162Z,7.77
2019-02-20T11:08:57.578Z,7.86
2019-02-20T11:09:56.067Z,7.92
2019-02-20T11:10:55.761Z,7.96
2019-02-20T11:11:55.766Z,7.98
2019-02-20T11:12:56.216Z,7.93
2019-02-20T11:13:56.094Z,8.03
2019-02-20T11:14:56.002Z,8.1
2019-02-20T11:15:56.017Z,8.06
2019-02-20T11:16:56.221Z,8.16
2019-02-20T11:17:55.768Z,8.2
2019-02-20T11:18:56.696Z,8.3
2019-02-20T11:19:55.767Z,8.33
2019-02-20T11:20:56.041Z,8.4
2019-02-20T11:21:56.201Z,8.44
2019-02-20T11:22:57.541Z,8.48
2019-02-20T11:23:55.955Z,8.52
2019-02-20T11:24:55.991Z,8.55
2019-02-20T11:25:55.766Z,8.62
2019-02-20T11:26:57.198Z,8.66
2019-02-20T11:27:56.571Z,8.69
2019-02-20T11:28:55.987Z,8.79
2019-02-20T11:29:55.994Z,8.79
2019-02-20T11:30:56.984Z,8.85
2019-02-20T11:31:56.685Z,8.86
2019-02-20T11:32:55.882Z,8.92
2019-02-20T11:33:55.739Z,8.98
2019-02-20T11:34:56.040Z,8.98
2019-02-20T11:35:56.035Z,9.03
2019-02-20T11:36:56.069Z,9.02
2019-02-20T11:37:56.045Z,9.07
2019-02-20T11:38:56.263Z,9.19
2019-02-20T11:39:56.071Z,9.19
2019-02-20T11:40:56.079Z,9.09
2019-02-20T11:41:56.084Z,9.13
2019-02-20T11:42:57.512Z,9.17
2019-02-20T11:43:56.194Z,9.23
2019-02-20T11:44:55.681Z,9.31
2019-02-20T11:45:56.034Z,9.42
2019-02-20T11:46:55.835Z,9.48
2019-02-20T11:47:55.669Z,9.51
2019-02-20T11:48:55.758Z,9.58
2019-02-20T11:49:56.626Z,9.59
2019-02-20T11:50:56.747Z,9.51
2019-02-20T11:51:55.713Z,9.35
2019-02-20T11:52:55.649Z,9.35
2019-02-20T11:53:56.053Z,9.3
2019-02-20T11:54:57.351Z,9.33
2019-02-20T11:55:56.064Z,9.35
2019-02-20T11:56:56.083Z,9.4
2019-02-20T11:58:01.252Z,9.45
2019-02-20T11:58:57.474Z,9.55
2019-02-20T11:59:56.504Z,9.63
2019-02-20T12:00:56.208Z,9.76
2019-02-20T12:01:55.478Z,9.82
2019-02-20T12:02:55.916Z,9.81
2019-02-20T12:03:55.711Z,9.73
2019-02-20T12:04:56.307Z,9.82
2019-02-20T12:05:55.626Z,9.89
2019-02-20T12:06:55.794Z,9.96
2019-02-20T12:07:55.726Z,10
2019-02-20T12:08:55.813Z,10.1
2019-02-20T12:09:55.647Z,10.17
2019-02-20T12:10:55.727Z,10.24
2019-02-20T12:11:55.644Z,10.2
2019-02-20T12:12:56.497Z,10.2
2019-02-20T12:13:55.756Z,10.31
2019-02-20T12:14:55.467Z,10.39
2019-02-20T12:15:55.743Z,10.34
2019-02-20T12:16:55.723Z,10.38
2019-02-20T12:17:56.123Z,10.44
2019-02-20T12:18:55.705Z,10.55
2019-02-20T12:19:56.021Z,10.61
2019-02-20T12:20:55.760Z,10.66
2019-02-20T12:21:56.039Z,10.76
2019-02-20T12:22:56.361Z,10.87
2019-02-20T12:23:56.575Z,10.93
2019-02-20T12:24:59.492Z,11
2019-02-20T12:25:56.068Z,11
2019-02-20T12:26:55.637Z,11.01
2019-02-20T12:27:55.989Z,11.08
2019-02-20T12:28:57.009Z,11.1
2019-02-20T12:29:55.587Z,11.1
2019-02-20T12:30:56.007Z,11.12
2019-02-20T12:31:56.010Z,11.14
2019-02-20T12:32:56.011Z,11.12
2019-02-20T12:33:55.720Z,11.11
2019-02-20T12:34:55.750Z,11.1
2019-02-20T12:35:56.038Z,11.06
2019-02-20T12:36:55.700Z,10.96
2019-02-20T12:37:55.688Z,10.9
2019-02-20T12:38:55.850Z,10.83
2019-02-20T12:39:55.793Z,10.83
2019-02-20T12:40:55.718Z,10.84
2019-02-20T12:41:55.623Z,10.86
2019-02-20T12:42:55.808Z,10.83
2019-02-20T12:43:55.603Z,10.83
2019-02-20T12:44:58.731Z,10.86
2019-02-20T12:45:55.894Z,10.96
2019-02-20T12:46:55.628Z,11.06
2019-02-20T12:47:55.662Z,11.18
2019-02-20T12:48:55.613Z,11.32
2019-02-20T12:49:55.751Z,11.27
2019-02-20T12:50:57.413Z,11.1
2019-02-20T12:51:56.038Z,11.06
2019-02-20T12:52:55.843Z,11.12
2019-02-20T12:53:57.497Z,11.18
2019-02-20T12:54:57.411Z,11.2
2019-02-20T12:55:56.467Z,11.3
2019-02-20T12:56:56.078Z,11.34
2019-02-20T12:57:55.875Z,11.22
2019-02-20T12:58:55.769Z,11.2
2019-02-20T12:59:55.701Z,11.2
2019-02-20T13:00:55.727Z,11.28
2019-02-20T13:01:55.786Z,11.44
2019-02-20T13:02:55.699Z,11.55
2019-02-20T13:03:55.620Z,11.68
2019-02-20T13:04:55.813Z,11.8
2019-02-20T13:05:57.004Z,11.84
2019-02-20T13:06:59.849Z,11.83
2019-02-20T13:07:57.382Z,11.8
2019-02-20T13:08:55.944Z,11.79
2019-02-20T13:09:55.680Z,11.83
2019-02-20T13:10:56.835Z,11.9
2019-02-20T13:11:55.696Z,11.82
2019-02-20T13:12:55.668Z,11.89
2019-02-20T13:13:55.700Z,11.93
2019-02-20T13:14:55.585Z,11.98
2019-02-20T13:15:55.619Z,12
2019-02-20T13:16:55.621Z,12.08
2019-02-20T13:17:55.602Z,12.07
2019-02-20T13:18:55.808Z,12.05
2019-02-20T13:19:56.998Z,12.08
2019-02-20T13:20:55.653Z,12.04